sensor_id;sensor_type;location;lat;lon;timestamp;temperature;humidity
23691;DHT22;43867;50.836;4.364;2022-08-19T00:02:25;20.90;99.90
23691;DHT22;43867;50.836;4.364;2022-08-19T00:04:51;21.00;99.90
23691;DHT22;43867;50.836;4.364;2022-08-19T00:07:21;21.00;99.90
23691;DHT22;43867;50.836;4.364;2022-08-19T00:09:47;21.10;99.90
23691;DHT22;43867;50.836;4.364;2022-08-19T00:12:13;21.20;99.90
23691;DHT22;43867;50.836;4.364;2022-08-19T00:14:38;21.30;99.90
23691;DHT22;43867;50.836;4.364;2022-08-19T00:17:05;21.20;99.90
23691;DHT22;43867;50.836;4.364;2022-08-19T00:19:32;21.20;99.90
23691;DHT22;43867;50.836;4.364;2022-08-19T00:21:58;21.30;99.90
23691;DHT22;43867;50.836;4.364;2022-08-19T00:24:25;21.30;99.90
23691;DHT22;43867;50.836;4.364;2022-08-19T00:26:51;21.20;99.90
23691;DHT22;43867;50.836;4.364;2022-08-19T00:29:19;21.00;99.90
23691;DHT22;43867;50.836;4.364;2022-08-19T00:31:46;21.00;99.90
23691;DHT22;43867;50.836;4.364;2022-08-19T00:34:13;20.80;99.90
23691;DHT22;43867;50.836;4.364;2022-08-19T00:36:40;20.80;99.90
23691;DHT22;43867;50.836;4.364;2022-08-19T00:39:07;20.90;99.90
23691;DHT22;43867;50.836;4.364;2022-08-19T00:41:33;21.00;99.90
23691;DHT22;43867;50.836;4.364;2022-08-19T00:46:37;21.10;99.90
23691;DHT22;43867;50.836;4.364;2022-08-19T00:49:12;20.90;99.90
23691;DHT22;43867;50.836;4.364;2022-08-19T00:51:41;21.00;99.90
23691;DHT22;43867;50.836;4.364;2022-08-19T00:54:08;20.80;99.90
23691;DHT22;43867;50.836;4.364;2022-08-19T00:56:35;20.80;99.90
23691;DHT22;43867;50.836;4.364;2022-08-19T00:59:02;20.90;99.90
23691;DHT22;43867;50.836;4.364;2022-08-19T01:01:33;21.10;99.90
23691;DHT22;43867;50.836;4.364;2022-08-19T01:03:59;20.90;99.90
23691;DHT22;43867;50.836;4.364;2022-08-19T01:06:26;20.80;99.90
23691;DHT22;43867;50.836;4.364;2022-08-19T01:08:52;20.60;99.90
23691;DHT22;43867;50.836;4.364;2022-08-19T01:11:17;20.60;99.90
23691;DHT22;43867;50.836;4.364;2022-08-19T01:13:44;20.60;99.90
23691;DHT22;43867;50.836;4.364;2022-08-19T01:16:11;20.50;99.90
23691;DHT22;43867;50.836;4.364;2022-08-19T01:18:40;20.60;99.90
23691;DHT22;43867;50.836;4.364;2022-08-19T01:21:31;20.60;99.90
23691;DHT22;43867;50.836;4.364;2022-08-19T01:23:58;20.60;99.90
23691;DHT22;43867;50.836;4.364;2022-08-19T01:26:25;20.50;99.90
23691;DHT22;43867;50.836;4.364;2022-08-19T01:28:53;20.30;99.90
23691;DHT22;43867;50.836;4.364;2022-08-19T01:31:23;20.20;99.90
23691;DHT22;43867;50.836;4.364;2022-08-19T01:33:51;19.90;99.90
23691;DHT22;43867;50.836;4.364;2022-08-19T01:36:36;19.90;99.90
23691;DHT22;43867;50.836;4.364;2022-08-19T01:39:06;19.90;99.90
23691;DHT22;43867;50.836;4.364;2022-08-19T01:41:33;20.00;99.90
23691;DHT22;43867;50.836;4.364;2022-08-19T01:43:58;20.10;99.90
23691;DHT22;43867;50.836;4.364;2022-08-19T01:46:26;20.20;99.90
23691;DHT22;43867;50.836;4.364;2022-08-19T01:48:52;20.10;99.90
23691;DHT22;43867;50.836;4.364;2022-08-19T01:51:17;20.10;99.90
23691;DHT22;43867;50.836;4.364;2022-08-19T01:53:47;20.00;99.90
23691;DHT22;43867;50.836;4.364;2022-08-19T01:56:13;20.10;99.90
23691;DHT22;43867;50.836;4.364;2022-08-19T01:58:43;20.10;99.90
23691;DHT22;43867;50.836;4.364;2022-08-19T02:01:12;20.00;99.90
23691;DHT22;43867;50.836;4.364;2022-08-19T02:03:39;19.90;99.90
23691;DHT22;43867;50.836;4.364;2022-08-19T02:06:05;19.90;99.90
23691;DHT22;43867;50.836;4.364;2022-08-19T02:08:34;20.00;99.90
23691;DHT22;43867;50.836;4.364;2022-08-19T02:10:59;19.90;99.90
23691;DHT22;43867;50.836;4.364;2022-08-19T02:13:25;19.80;99.90
23691;DHT22;43867;50.836;4.364;2022-08-19T02:15:51;19.70;99.90
23691;DHT22;43867;50.836;4.364;2022-08-19T02:18:17;19.60;99.90
23691;DHT22;43867;50.836;4.364;2022-08-19T02:20:44;19.50;99.90
23691;DHT22;43867;50.836;4.364;2022-08-19T02:23:11;19.40;99.90
23691;DHT22;43867;50.836;4.364;2022-08-19T02:25:37;19.30;99.90
23691;DHT22;43867;50.836;4.364;2022-08-19T02:28:04;19.20;99.90
23691;DHT22;43867;50.836;4.364;2022-08-19T02:30:30;19.10;99.90
23691;DHT22;43867;50.836;4.364;2022-08-19T02:32:55;19.10;99.90
23691;DHT22;43867;50.836;4.364;2022-08-19T02:35:21;19.10;99.90
23691;DHT22;43867;50.836;4.364;2022-08-19T02:37:47;19.10;99.90
23691;DHT22;43867;50.836;4.364;2022-08-19T02:40:32;19.00;99.90
23691;DHT22;43867;50.836;4.364;2022-08-19T02:43:00;18.80;99.90
23691;DHT22;43867;50.836;4.364;2022-08-19T02:45:26;18.70;99.90
23691;DHT22;43867;50.836;4.364;2022-08-19T02:47:52;18.60;99.90
23691;DHT22;43867;50.836;4.364;2022-08-19T02:50:18;18.50;99.90
23691;DHT22;43867;50.836;4.364;2022-08-19T02:52:43;18.40;99.90
23691;DHT22;43867;50.836;4.364;2022-08-19T02:55:10;18.50;99.90
23691;DHT22;43867;50.836;4.364;2022-08-19T02:57:36;18.50;99.90
23691;DHT22;43867;50.836;4.364;2022-08-19T03:00:05;18.50;99.90
23691;DHT22;43867;50.836;4.364;2022-08-19T03:02:31;18.40;99.90
23691;DHT22;43867;50.836;4.364;2022-08-19T03:04:56;18.50;99.90
23691;DHT22;43867;50.836;4.364;2022-08-19T03:07:22;18.50;99.90
23691;DHT22;43867;50.836;4.364;2022-08-19T03:09:47;18.40;99.90
23691;DHT22;43867;50.836;4.364;2022-08-19T03:12:13;18.40;99.90
23691;DHT22;43867;50.836;4.364;2022-08-19T03:14:39;18.30;99.90
23691;DHT22;43867;50.836;4.364;2022-08-19T03:17:05;18.40;99.90
23691;DHT22;43867;50.836;4.364;2022-08-19T03:19:31;18.30;99.90
23691;DHT22;43867;50.836;4.364;2022-08-19T03:21:57;18.20;99.90
23691;DHT22;43867;50.836;4.364;2022-08-19T03:24:24;18.30;99.90
23691;DHT22;43867;50.836;4.364;2022-08-19T03:26:54;18.20;99.90
23691;DHT22;43867;50.836;4.364;2022-08-19T03:29:25;18.10;99.90
23691;DHT22;43867;50.836;4.364;2022-08-19T03:31:51;18.10;99.90
23691;DHT22;43867;50.836;4.364;2022-08-19T03:34:26;18.00;99.90
23691;DHT22;43867;50.836;4.364;2022-08-19T03:36:54;17.90;99.90
23691;DHT22;43867;50.836;4.364;2022-08-19T03:39:21;17.90;99.90
23691;DHT22;43867;50.836;4.364;2022-08-19T03:41:49;17.90;99.90
23691;DHT22;43867;50.836;4.364;2022-08-19T03:44:18;17.90;99.90
23691;DHT22;43867;50.836;4.364;2022-08-19T03:46:47;17.90;99.90
23691;DHT22;43867;50.836;4.364;2022-08-19T03:49:13;17.90;99.90
23691;DHT22;43867;50.836;4.364;2022-08-19T03:51:39;18.00;99.90
23691;DHT22;43867;50.836;4.364;2022-08-19T03:54:07;18.00;99.90
23691;DHT22;43867;50.836;4.364;2022-08-19T03:56:36;17.90;99.90
23691;DHT22;43867;50.836;4.364;2022-08-19T03:59:03;17.80;99.90
23691;DHT22;43867;50.836;4.364;2022-08-19T04:01:29;17.70;99.90
23691;DHT22;43867;50.836;4.364;2022-08-19T04:03:56;17.80;99.90
23691;DHT22;43867;50.836;4.364;2022-08-19T04:06:31;17.90;99.90
23691;DHT22;43867;50.836;4.364;2022-08-19T04:08:59;17.80;99.90
23691;DHT22;43867;50.836;4.364;2022-08-19T04:11:29;17.70;99.90
23691;DHT22;43867;50.836;4.364;2022-08-19T04:13:55;17.80;99.90
23691;DHT22;43867;50.836;4.364;2022-08-19T04:16:25;17.70;99.90
23691;DHT22;43867;50.836;4.364;2022-08-19T04:18:55;17.60;99.90
23691;DHT22;43867;50.836;4.364;2022-08-19T04:21:24;17.40;99.90
23691;DHT22;43867;50.836;4.364;2022-08-19T04:23:50;17.40;99.90
23691;DHT22;43867;50.836;4.364;2022-08-19T04:26:22;17.30;99.90
23691;DHT22;43867;50.836;4.364;2022-08-19T04:28:48;17.30;99.90
23691;DHT22;43867;50.836;4.364;2022-08-19T04:31:23;17.30;99.90
23691;DHT22;43867;50.836;4.364;2022-08-19T04:33:53;17.30;99.90
23691;DHT22;43867;50.836;4.364;2022-08-19T04:36:22;17.30;99.90
23691;DHT22;43867;50.836;4.364;2022-08-19T04:38:49;17.20;99.90
23691;DHT22;43867;50.836;4.364;2022-08-19T04:41:15;17.20;99.90
23691;DHT22;43867;50.836;4.364;2022-08-19T04:43:59;17.20;99.90
23691;DHT22;43867;50.836;4.364;2022-08-19T04:46:26;17.30;99.90
23691;DHT22;43867;50.836;4.364;2022-08-19T04:48:51;17.50;99.90
23691;DHT22;43867;50.836;4.364;2022-08-19T04:51:18;17.40;99.90
23691;DHT22;43867;50.836;4.364;2022-08-19T04:53:45;17.40;99.90
23691;DHT22;43867;50.836;4.364;2022-08-19T04:56:14;17.50;99.90
23691;DHT22;43867;50.836;4.364;2022-08-19T04:58:42;17.50;99.90
23691;DHT22;43867;50.836;4.364;2022-08-19T05:01:12;17.50;99.90
23691;DHT22;43867;50.836;4.364;2022-08-19T05:03:38;17.60;99.90
23691;DHT22;43867;50.836;4.364;2022-08-19T05:06:10;17.50;99.90
23691;DHT22;43867;50.836;4.364;2022-08-19T05:08:38;17.50;99.90
23691;DHT22;43867;50.836;4.364;2022-08-19T05:11:27;17.50;99.90
23691;DHT22;43867;50.836;4.364;2022-08-19T05:13:54;17.40;99.90
23691;DHT22;43867;50.836;4.364;2022-08-19T05:16:21;17.40;99.90
23691;DHT22;43867;50.836;4.364;2022-08-19T05:18:48;17.50;99.90
23691;DHT22;43867;50.836;4.364;2022-08-19T05:21:34;17.60;99.90
23691;DHT22;43867;50.836;4.364;2022-08-19T05:24:19;17.70;99.90
23691;DHT22;43867;50.836;4.364;2022-08-19T05:26:48;17.70;99.90
23691;DHT22;43867;50.836;4.364;2022-08-19T05:29:16;17.80;99.90
23691;DHT22;43867;50.836;4.364;2022-08-19T05:31:43;17.80;99.90
23691;DHT22;43867;50.836;4.364;2022-08-19T05:34:09;17.80;99.90
23691;DHT22;43867;50.836;4.364;2022-08-19T05:36:43;17.80;99.90
23691;DHT22;43867;50.836;4.364;2022-08-19T05:39:12;17.70;99.90
23691;DHT22;43867;50.836;4.364;2022-08-19T05:41:46;17.70;99.90
23691;DHT22;43867;50.836;4.364;2022-08-19T05:44:14;17.70;99.90
23691;DHT22;43867;50.836;4.364;2022-08-19T05:46:40;17.80;99.90
23691;DHT22;43867;50.836;4.364;2022-08-19T05:49:08;17.80;99.90
23691;DHT22;43867;50.836;4.364;2022-08-19T05:51:35;18.00;99.90
23691;DHT22;43867;50.836;4.364;2022-08-19T05:54:03;18.20;99.90
23691;DHT22;43867;50.836;4.364;2022-08-19T05:56:30;18.30;99.90
23691;DHT22;43867;50.836;4.364;2022-08-19T05:58:57;18.40;99.90
23691;DHT22;43867;50.836;4.364;2022-08-19T06:01:24;18.40;99.90
23691;DHT22;43867;50.836;4.364;2022-08-19T06:03:50;18.60;99.90
23691;DHT22;43867;50.836;4.364;2022-08-19T06:06:16;18.70;99.90
23691;DHT22;43867;50.836;4.364;2022-08-19T06:08:43;18.80;99.90
23691;DHT22;43867;50.836;4.364;2022-08-19T06:11:20;18.90;99.90
23691;DHT22;43867;50.836;4.364;2022-08-19T06:13:50;19.20;99.90
23691;DHT22;43867;50.836;4.364;2022-08-19T06:16:21;19.20;99.90
23691;DHT22;43867;50.836;4.364;2022-08-19T06:18:51;19.30;99.90
23691;DHT22;43867;50.836;4.364;2022-08-19T06:21:22;19.40;99.90
23691;DHT22;43867;50.836;4.364;2022-08-19T06:23:49;19.50;99.90
23691;DHT22;43867;50.836;4.364;2022-08-19T06:26:17;19.60;99.90
23691;DHT22;43867;50.836;4.364;2022-08-19T06:28:43;19.60;99.90
23691;DHT22;43867;50.836;4.364;2022-08-19T06:31:17;19.60;99.90
23691;DHT22;43867;50.836;4.364;2022-08-19T06:33:44;19.60;99.90
23691;DHT22;43867;50.836;4.364;2022-08-19T06:36:40;19.70;99.90
23691;DHT22;43867;50.836;4.364;2022-08-19T06:39:13;20.00;99.90
23691;DHT22;43867;50.836;4.364;2022-08-19T06:41:45;20.20;99.90
23691;DHT22;43867;50.836;4.364;2022-08-19T06:44:12;20.30;99.90
23691;DHT22;43867;50.836;4.364;2022-08-19T06:46:39;20.50;99.90
23691;DHT22;43867;50.836;4.364;2022-08-19T06:49:06;20.80;99.90
23691;DHT22;43867;50.836;4.364;2022-08-19T06:51:34;20.50;99.90
23691;DHT22;43867;50.836;4.364;2022-08-19T06:54:00;20.50;99.90
23691;DHT22;43867;50.836;4.364;2022-08-19T06:56:29;20.40;99.90
23691;DHT22;43867;50.836;4.364;2022-08-19T06:58:57;20.10;99.90
23691;DHT22;43867;50.836;4.364;2022-08-19T07:01:23;20.30;99.90
23691;DHT22;43867;50.836;4.364;2022-08-19T07:03:49;20.50;99.90
23691;DHT22;43867;50.836;4.364;2022-08-19T07:06:16;20.40;99.90
23691;DHT22;43867;50.836;4.364;2022-08-19T07:08:44;20.30;99.90
23691;DHT22;43867;50.836;4.364;2022-08-19T07:11:12;20.50;99.90
23691;DHT22;43867;50.836;4.364;2022-08-19T07:13:39;20.60;99.90
23691;DHT22;43867;50.836;4.364;2022-08-19T07:16:06;20.40;99.90
23691;DHT22;43867;50.836;4.364;2022-08-19T07:18:32;20.20;99.90
23691;DHT22;43867;50.836;4.364;2022-08-19T07:21:23;20.20;99.90
23691;DHT22;43867;50.836;4.364;2022-08-19T07:23:49;20.40;99.90
23691;DHT22;43867;50.836;4.364;2022-08-19T07:26:20;20.50;99.90
23691;DHT22;43867;50.836;4.364;2022-08-19T07:28:47;20.60;99.90
23691;DHT22;43867;50.836;4.364;2022-08-19T07:31:18;20.90;99.90
23691;DHT22;43867;50.836;4.364;2022-08-19T07:33:44;21.00;99.90
23691;DHT22;43867;50.836;4.364;2022-08-19T07:36:12;21.00;99.90
23691;DHT22;43867;50.836;4.364;2022-08-19T07:38:40;21.00;99.90
23691;DHT22;43867;50.836;4.364;2022-08-19T07:41:09;21.10;99.90
23691;DHT22;43867;50.836;4.364;2022-08-19T07:43:35;21.30;99.90
23691;DHT22;43867;50.836;4.364;2022-08-19T07:46:01;21.40;99.90
23691;DHT22;43867;50.836;4.364;2022-08-19T07:48:27;21.20;99.90
23691;DHT22;43867;50.836;4.364;2022-08-19T07:51:01;21.30;99.90
23691;DHT22;43867;50.836;4.364;2022-08-19T07:53:29;21.60;99.90
23691;DHT22;43867;50.836;4.364;2022-08-19T07:55:55;22.00;99.90
23691;DHT22;43867;50.836;4.364;2022-08-19T07:58:23;21.80;99.90
23691;DHT22;43867;50.836;4.364;2022-08-19T08:00:50;21.90;99.90
23691;DHT22;43867;50.836;4.364;2022-08-19T08:03:20;21.80;99.90
23691;DHT22;43867;50.836;4.364;2022-08-19T08:06:06;21.80;99.90
23691;DHT22;43867;50.836;4.364;2022-08-19T08:08:51;21.90;99.90
23691;DHT22;43867;50.836;4.364;2022-08-19T08:11:35;22.10;99.90
23691;DHT22;43867;50.836;4.364;2022-08-19T08:14:01;22.30;99.90
23691;DHT22;43867;50.836;4.364;2022-08-19T08:16:27;22.40;99.90
23691;DHT22;43867;50.836;4.364;2022-08-19T08:18:57;22.80;99.90
23691;DHT22;43867;50.836;4.364;2022-08-19T08:21:23;22.80;99.90
23691;DHT22;43867;50.836;4.364;2022-08-19T08:23:48;22.70;99.90
23691;DHT22;43867;50.836;4.364;2022-08-19T08:26:14;22.90;99.90
23691;DHT22;43867;50.836;4.364;2022-08-19T08:28:40;23.10;99.90
23691;DHT22;43867;50.836;4.364;2022-08-19T08:31:06;23.10;99.90
23691;DHT22;43867;50.836;4.364;2022-08-19T08:33:31;23.00;99.90
23691;DHT22;43867;50.836;4.364;2022-08-19T08:35:57;23.20;99.90
23691;DHT22;43867;50.836;4.364;2022-08-19T08:38:23;23.20;99.90
23691;DHT22;43867;50.836;4.364;2022-08-19T08:40:51;23.20;99.90
23691;DHT22;43867;50.836;4.364;2022-08-19T08:43:32;22.90;99.90
23691;DHT22;43867;50.836;4.364;2022-08-19T08:48:46;22.50;99.90
23691;DHT22;43867;50.836;4.364;2022-08-19T08:51:18;22.60;99.90
23691;DHT22;43867;50.836;4.364;2022-08-19T08:53:47;22.70;99.90
23691;DHT22;43867;50.836;4.364;2022-08-19T08:56:16;22.90;99.90
23691;DHT22;43867;50.836;4.364;2022-08-19T08:58:56;22.70;99.90
23691;DHT22;43867;50.836;4.364;2022-08-19T09:01:23;22.40;99.90
23691;DHT22;43867;50.836;4.364;2022-08-19T09:03:49;22.40;99.90
23691;DHT22;43867;50.836;4.364;2022-08-19T09:06:38;22.20;99.90
23691;DHT22;43867;50.836;4.364;2022-08-19T09:09:20;22.30;99.90
23691;DHT22;43867;50.836;4.364;2022-08-19T09:12:10;22.40;99.90
23691;DHT22;43867;50.836;4.364;2022-08-19T09:17:21;22.40;99.90
23691;DHT22;43867;50.836;4.364;2022-08-19T09:19:57;22.40;99.90
23691;DHT22;43867;50.836;4.364;2022-08-19T09:22:23;22.50;99.90
23691;DHT22;43867;50.836;4.364;2022-08-19T09:24:50;22.90;99.90
23691;DHT22;43867;50.836;4.364;2022-08-19T09:27:18;23.10;99.90
23691;DHT22;43867;50.836;4.364;2022-08-19T09:29:44;23.00;99.90
23691;DHT22;43867;50.836;4.364;2022-08-19T09:32:10;22.90;99.90
23691;DHT22;43867;50.836;4.364;2022-08-19T09:34:36;22.90;99.90
23691;DHT22;43867;50.836;4.364;2022-08-19T09:37:01;22.90;99.90
23691;DHT22;43867;50.836;4.364;2022-08-19T09:39:28;23.00;99.90
23691;DHT22;43867;50.836;4.364;2022-08-19T09:41:56;22.80;99.90
23691;DHT22;43867;50.836;4.364;2022-08-19T09:44:22;22.90;99.90
23691;DHT22;43867;50.836;4.364;2022-08-19T09:46:48;22.80;99.90
23691;DHT22;43867;50.836;4.364;2022-08-19T09:49:18;23.00;99.90
23691;DHT22;43867;50.836;4.364;2022-08-19T09:51:45;23.10;99.90
23691;DHT22;43867;50.836;4.364;2022-08-19T09:54:14;23.10;99.90
23691;DHT22;43867;50.836;4.364;2022-08-19T09:56:40;23.10;99.90
23691;DHT22;43867;50.836;4.364;2022-08-19T09:59:05;23.10;99.90
23691;DHT22;43867;50.836;4.364;2022-08-19T10:01:32;23.10;99.90
23691;DHT22;43867;50.836;4.364;2022-08-19T10:04:00;23.20;99.90
23691;DHT22;43867;50.836;4.364;2022-08-19T10:06:29;23.50;99.90
23691;DHT22;43867;50.836;4.364;2022-08-19T10:08:59;23.70;99.90
23691;DHT22;43867;50.836;4.364;2022-08-19T10:11:25;23.50;99.90
23691;DHT22;43867;50.836;4.364;2022-08-19T10:13:52;23.60;99.90
23691;DHT22;43867;50.836;4.364;2022-08-19T10:16:21;23.60;99.90
23691;DHT22;43867;50.836;4.364;2022-08-19T10:18:48;23.80;99.90
23691;DHT22;43867;50.836;4.364;2022-08-19T10:21:19;24.00;99.90
23691;DHT22;43867;50.836;4.364;2022-08-19T10:23:47;24.20;99.90
23691;DHT22;43867;50.836;4.364;2022-08-19T10:26:17;23.90;99.90
23691;DHT22;43867;50.836;4.364;2022-08-19T10:28:43;23.90;99.90
23691;DHT22;43867;50.836;4.364;2022-08-19T10:31:11;24.00;99.90
23691;DHT22;43867;50.836;4.364;2022-08-19T10:33:38;24.30;99.90
23691;DHT22;43867;50.836;4.364;2022-08-19T10:36:12;24.00;99.90
23691;DHT22;43867;50.836;4.364;2022-08-19T10:38:41;23.90;99.90
23691;DHT22;43867;50.836;4.364;2022-08-19T10:41:21;23.70;99.90
23691;DHT22;43867;50.836;4.364;2022-08-19T10:43:51;23.40;99.90
23691;DHT22;43867;50.836;4.364;2022-08-19T10:46:19;23.40;99.90
23691;DHT22;43867;50.836;4.364;2022-08-19T10:48:45;23.50;99.90
23691;DHT22;43867;50.836;4.364;2022-08-19T10:51:12;23.60;99.90
23691;DHT22;43867;50.836;4.364;2022-08-19T10:53:57;23.80;99.90
23691;DHT22;43867;50.836;4.364;2022-08-19T10:56:24;23.50;99.90
23691;DHT22;43867;50.836;4.364;2022-08-19T10:59:08;23.50;99.90
23691;DHT22;43867;50.836;4.364;2022-08-19T11:01:34;23.50;99.90
23691;DHT22;43867;50.836;4.364;2022-08-19T11:04:02;23.50;99.90
23691;DHT22;43867;50.836;4.364;2022-08-19T11:06:28;23.40;99.90
23691;DHT22;43867;50.836;4.364;2022-08-19T11:08:55;23.10;99.90
23691;DHT22;43867;50.836;4.364;2022-08-19T11:11:22;22.80;99.90
23691;DHT22;43867;50.836;4.364;2022-08-19T11:13:49;22.90;99.90
23691;DHT22;43867;50.836;4.364;2022-08-19T11:16:18;23.20;99.90
23691;DHT22;43867;50.836;4.364;2022-08-19T11:18:46;23.60;99.90
23691;DHT22;43867;50.836;4.364;2022-08-19T11:21:23;24.00;99.90
23691;DHT22;43867;50.836;4.364;2022-08-19T11:23:52;23.90;99.90
23691;DHT22;43867;50.836;4.364;2022-08-19T11:26:20;23.80;99.90
23691;DHT22;43867;50.836;4.364;2022-08-19T11:28:47;23.80;99.90
23691;DHT22;43867;50.836;4.364;2022-08-19T11:31:15;23.80;99.90
23691;DHT22;43867;50.836;4.364;2022-08-19T11:33:41;23.80;99.90
23691;DHT22;43867;50.836;4.364;2022-08-19T11:36:08;23.80;99.90
23691;DHT22;43867;50.836;4.364;2022-08-19T11:38:34;23.90;99.90
23691;DHT22;43867;50.836;4.364;2022-08-19T11:41:03;23.80;99.90
23691;DHT22;43867;50.836;4.364;2022-08-19T11:43:30;23.80;99.90
23691;DHT22;43867;50.836;4.364;2022-08-19T11:45:57;23.70;99.90
23691;DHT22;43867;50.836;4.364;2022-08-19T11:48:24;23.80;99.90
23691;DHT22;43867;50.836;4.364;2022-08-19T11:50:52;23.90;99.90
23691;DHT22;43867;50.836;4.364;2022-08-19T11:53:19;23.90;99.90
23691;DHT22;43867;50.836;4.364;2022-08-19T11:55:48;23.80;99.90
23691;DHT22;43867;50.836;4.364;2022-08-19T11:58:16;23.80;99.90
23691;DHT22;43867;50.836;4.364;2022-08-19T12:00:44;24.30;99.90
23691;DHT22;43867;50.836;4.364;2022-08-19T12:03:11;24.60;99.90
23691;DHT22;43867;50.836;4.364;2022-08-19T12:05:38;24.70;99.90
23691;DHT22;43867;50.836;4.364;2022-08-19T12:08:05;24.80;99.90
23691;DHT22;43867;50.836;4.364;2022-08-19T12:10:32;24.80;99.90
23691;DHT22;43867;50.836;4.364;2022-08-19T12:12:58;25.00;99.90
23691;DHT22;43867;50.836;4.364;2022-08-19T12:15:24;25.30;99.90
23691;DHT22;43867;50.836;4.364;2022-08-19T12:17:49;25.50;99.90
23691;DHT22;43867;50.836;4.364;2022-08-19T12:20:15;25.70;99.90
23691;DHT22;43867;50.836;4.364;2022-08-19T12:22:42;25.70;99.90
23691;DHT22;43867;50.836;4.364;2022-08-19T12:25:11;25.70;99.90
23691;DHT22;43867;50.836;4.364;2022-08-19T12:27:38;25.90;99.90
23691;DHT22;43867;50.836;4.364;2022-08-19T12:30:05;25.90;99.90
23691;DHT22;43867;50.836;4.364;2022-08-19T12:32:32;25.80;99.90
23691;DHT22;43867;50.836;4.364;2022-08-19T12:34:57;25.80;99.90
23691;DHT22;43867;50.836;4.364;2022-08-19T12:37:23;25.90;99.90
23691;DHT22;43867;50.836;4.364;2022-08-19T12:39:49;26.20;99.90
23691;DHT22;43867;50.836;4.364;2022-08-19T12:42:15;25.80;99.90
23691;DHT22;43867;50.836;4.364;2022-08-19T12:44:42;25.80;99.90
23691;DHT22;43867;50.836;4.364;2022-08-19T12:47:10;25.70;99.90
23691;DHT22;43867;50.836;4.364;2022-08-19T12:49:36;25.80;99.90
23691;DHT22;43867;50.836;4.364;2022-08-19T12:52:04;25.90;99.90
23691;DHT22;43867;50.836;4.364;2022-08-19T12:54:30;26.40;99.90
23691;DHT22;43867;50.836;4.364;2022-08-19T12:56:57;26.80;99.90
23691;DHT22;43867;50.836;4.364;2022-08-19T12:59:23;26.80;99.90
23691;DHT22;43867;50.836;4.364;2022-08-19T13:01:49;26.80;99.90
23691;DHT22;43867;50.836;4.364;2022-08-19T13:04:15;26.70;99.90
23691;DHT22;43867;50.836;4.364;2022-08-19T13:06:42;26.80;99.90
23691;DHT22;43867;50.836;4.364;2022-08-19T13:09:08;26.50;99.90
23691;DHT22;43867;50.836;4.364;2022-08-19T13:11:34;26.50;99.90
23691;DHT22;43867;50.836;4.364;2022-08-19T13:14:01;26.80;99.90
23691;DHT22;43867;50.836;4.364;2022-08-19T13:16:27;26.90;99.90
23691;DHT22;43867;50.836;4.364;2022-08-19T13:18:54;26.70;99.90
23691;DHT22;43867;50.836;4.364;2022-08-19T13:21:22;26.60;99.90
23691;DHT22;43867;50.836;4.364;2022-08-19T13:23:50;26.50;99.90
23691;DHT22;43867;50.836;4.364;2022-08-19T13:26:16;26.30;99.90
23691;DHT22;43867;50.836;4.364;2022-08-19T13:28:43;26.20;99.90
23691;DHT22;43867;50.836;4.364;2022-08-19T13:31:31;26.00;99.90
23691;DHT22;43867;50.836;4.364;2022-08-19T13:34:17;25.90;99.90
23691;DHT22;43867;50.836;4.364;2022-08-19T13:36:44;26.20;99.90
23691;DHT22;43867;50.836;4.364;2022-08-19T13:39:10;26.10;99.90
23691;DHT22;43867;50.836;4.364;2022-08-19T13:41:37;26.10;99.90
23691;DHT22;43867;50.836;4.364;2022-08-19T13:44:08;25.80;99.90
23691;DHT22;43867;50.836;4.364;2022-08-19T13:46:34;26.20;99.90
23691;DHT22;43867;50.836;4.364;2022-08-19T13:49:01;26.20;99.90
23691;DHT22;43867;50.836;4.364;2022-08-19T13:51:26;25.80;99.90
23691;DHT22;43867;50.836;4.364;2022-08-19T13:53:52;26.00;99.90
23691;DHT22;43867;50.836;4.364;2022-08-19T13:56:19;26.30;99.90
23691;DHT22;43867;50.836;4.364;2022-08-19T13:58:45;26.50;99.90
23691;DHT22;43867;50.836;4.364;2022-08-19T14:01:11;26.50;99.90
23691;DHT22;43867;50.836;4.364;2022-08-19T14:03:38;26.10;99.90
23691;DHT22;43867;50.836;4.364;2022-08-19T14:06:03;25.70;99.90
23691;DHT22;43867;50.836;4.364;2022-08-19T14:08:29;25.40;99.90
23691;DHT22;43867;50.836;4.364;2022-08-19T14:10:57;25.30;99.90
23691;DHT22;43867;50.836;4.364;2022-08-19T14:13:24;25.10;99.90
23691;DHT22;43867;50.836;4.364;2022-08-19T14:15:50;24.60;99.90
23691;DHT22;43867;50.836;4.364;2022-08-19T14:18:18;24.10;99.90
23691;DHT22;43867;50.836;4.364;2022-08-19T14:20:44;23.70;99.90
23691;DHT22;43867;50.836;4.364;2022-08-19T14:23:10;23.80;99.90
23691;DHT22;43867;50.836;4.364;2022-08-19T14:25:38;24.00;99.90
23691;DHT22;43867;50.836;4.364;2022-08-19T14:28:04;24.20;99.90
23691;DHT22;43867;50.836;4.364;2022-08-19T14:30:32;24.30;99.90
23691;DHT22;43867;50.836;4.364;2022-08-19T14:33:01;24.50;99.90
23691;DHT22;43867;50.836;4.364;2022-08-19T14:35:29;24.40;99.90
23691;DHT22;43867;50.836;4.364;2022-08-19T14:37:55;24.40;99.90
23691;DHT22;43867;50.836;4.364;2022-08-19T14:40:26;24.20;99.90
23691;DHT22;43867;50.836;4.364;2022-08-19T14:42:57;24.20;99.90
23691;DHT22;43867;50.836;4.364;2022-08-19T14:45:28;24.00;99.90
23691;DHT22;43867;50.836;4.364;2022-08-19T14:47:54;23.90;99.90
23691;DHT22;43867;50.836;4.364;2022-08-19T14:50:20;23.70;99.90
23691;DHT22;43867;50.836;4.364;2022-08-19T14:52:46;23.70;99.90
23691;DHT22;43867;50.836;4.364;2022-08-19T14:55:13;23.60;99.90
23691;DHT22;43867;50.836;4.364;2022-08-19T14:57:41;23.70;99.90
23691;DHT22;43867;50.836;4.364;2022-08-19T15:00:07;23.80;99.90
23691;DHT22;43867;50.836;4.364;2022-08-19T15:02:38;24.30;99.90
23691;DHT22;43867;50.836;4.364;2022-08-19T15:05:05;24.40;99.90
23691;DHT22;43867;50.836;4.364;2022-08-19T15:07:30;24.60;99.90
23691;DHT22;43867;50.836;4.364;2022-08-19T15:09:56;24.80;99.90
23691;DHT22;43867;50.836;4.364;2022-08-19T15:12:22;24.80;99.90
23691;DHT22;43867;50.836;4.364;2022-08-19T15:14:49;24.80;99.90
23691;DHT22;43867;50.836;4.364;2022-08-19T15:17:18;24.70;99.90
23691;DHT22;43867;50.836;4.364;2022-08-19T15:19:44;24.60;99.90
23691;DHT22;43867;50.836;4.364;2022-08-19T15:22:11;24.50;99.90
23691;DHT22;43867;50.836;4.364;2022-08-19T15:24:36;24.60;99.90
23691;DHT22;43867;50.836;4.364;2022-08-19T15:27:03;24.70;99.90
23691;DHT22;43867;50.836;4.364;2022-08-19T15:29:30;24.60;99.90
23691;DHT22;43867;50.836;4.364;2022-08-19T15:31:56;24.80;99.90
23691;DHT22;43867;50.836;4.364;2022-08-19T15:34:23;25.00;99.90
23691;DHT22;43867;50.836;4.364;2022-08-19T15:36:51;25.00;99.90
23691;DHT22;43867;50.836;4.364;2022-08-19T15:39:17;25.20;99.90
23691;DHT22;43867;50.836;4.364;2022-08-19T15:41:44;25.20;99.90
23691;DHT22;43867;50.836;4.364;2022-08-19T15:44:13;25.00;99.90
23691;DHT22;43867;50.836;4.364;2022-08-19T15:46:42;24.90;99.90